Time;durP1;ratioP1;P1;durP2;ratioP2;P2;SDS_P1;SDS_P2;PMS_P1;PMS_P2;Temp;Humidity;BMP_temperature;BMP_pressure;BME280_temperature;BME280_humidity;BME280_pressure;Samples;Min_cycle;Max_cycle;Signal;HPM_P1;HPM_P2
2022/07/12 00:00:07;;;;;;;10.50;5.78;;;;;;;16.36;100.00;101324.00;5033638;28;20425;-80
2022/07/12 00:02:33;;;;;;;6.70;5.15;;;;;;;16.37;100.00;101308.53;5027985;28;20112;-78
2022/07/12 00:04:58;;;;;;;6.78;5.30;;;;;;;16.39;100.00;101314.63;5033761;28;20438;-78
2022/07/12 00:07:24;;;;;;;7.20;5.13;;;;;;;16.36;100.00;101301.44;5019996;28;20048;-79
2022/07/12 00:09:49;;;;;;;6.25;5.10;;;;;;;16.32;100.00;101297.44;5051376;28;20029;-79
2022/07/12 00:12:15;;;;;;;7.10;4.80;;;;;;;16.37;100.00;101297.69;5031291;28;20466;-80
2022/07/12 00:14:41;;;;;;;7.30;4.82;;;;;;;16.35;100.00;101300.59;5033765;28;20044;-78
2022/07/12 00:17:06;;;;;;;9.10;5.30;;;;;;;16.23;100.00;101283.22;5021275;28;20075;-78
2022/07/12 00:19:32;;;;;;;6.70;4.20;;;;;;;16.29;100.00;101298.69;5028002;28;20043;-78
2022/07/12 00:21:58;;;;;;;8.10;4.55;;;;;;;16.30;100.00;101296.81;5014375;28;20063;-79
2022/07/12 00:24:24;;;;;;;8.23;5.07;;;;;;;16.33;100.00;101305.41;5043940;28;20478;-80
2022/07/12 00:26:49;;;;;;;7.75;4.53;;;;;;;16.31;100.00;101302.03;5016764;28;20032;-79
2022/07/12 00:29:15;;;;;;;6.00;4.43;;;;;;;16.21;100.00;101294.25;5019908;28;20036;-78
2022/07/12 00:31:40;;;;;;;6.38;4.60;;;;;;;16.26;100.00;101313.50;5012083;28;20033;-78
2022/07/12 00:34:26;;;;;;;6.45;4.53;;;;;;;16.35;100.00;101326.91;5028636;28;20041;-79
2022/07/12 00:36:59;;;;;;;5.85;4.20;;;;;;;16.38;100.00;101327.34;5000474;28;20429;-78
2022/07/12 00:39:38;;;;;;;6.03;4.63;;;;;;;16.37;100.00;101314.81;5015912;28;20093;-80
2022/07/12 00:42:04;;;;;;;6.28;4.63;;;;;;;16.39;100.00;101301.03;5017222;28;20422;-82
2022/07/12 00:44:33;;;;;;;6.35;4.30;;;;;;;16.41;100.00;101299.81;5009591;28;20033;-78
2022/07/12 00:47:00;;;;;;;5.78;4.15;;;;;;;16.26;100.00;101261.94;5024038;28;20040;-78
2022/07/12 00:49:26;;;;;;;6.75;4.07;;;;;;;16.39;100.00;101299.16;5024878;28;20044;-79
2022/07/12 00:51:54;;;;;;;9.98;4.15;;;;;;;16.33;100.00;101299.97;5028149;28;20060;-78
2022/07/12 00:54:19;;;;;;;6.32;4.60;;;;;;;16.35;100.00;101325.00;5043855;28;20028;-77
2022/07/12 00:56:45;;;;;;;5.45;4.85;;;;;;;16.30;100.00;101323.94;5026553;28;20428;-79
2022/07/12 00:59:11;;;;;;;6.60;4.00;;;;;;;16.27;100.00;101328.75;5022645;28;20627;-78
2022/07/12 01:01:38;;;;;;;7.00;4.93;;;;;;;16.16;100.00;101323.88;5014481;28;20044;-80
2022/07/12 01:04:04;;;;;;;6.80;4.65;;;;;;;16.17;100.00;101333.69;5028417;28;20114;-80
2022/07/12 01:06:31;;;;;;;6.47;4.80;;;;;;;16.16;100.00;101351.00;5012374;28;20032;-81
2022/07/12 01:08:58;;;;;;;7.43;5.22;;;;;;;16.12;100.00;101354.31;5032406;28;20100;-79
2022/07/12 01:11:25;;;;;;;5.70;4.80;;;;;;;16.03;100.00;101340.03;5044919;28;20079;-80
2022/07/12 01:13:52;;;;;;;7.72;5.05;;;;;;;16.02;100.00;101335.66;5026052;28;20039;-79
2022/07/12 01:16:19;;;;;;;5.40;4.72;;;;;;;15.94;100.00;101335.81;5029970;28;20058;-80
2022/07/12 01:18:45;;;;;;;5.45;4.55;;;;;;;15.88;100.00;101339.28;5049302;28;20021;-77
2022/07/12 01:21:14;;;;;;;9.77;4.97;;;;;;;15.85;100.00;101336.97;5030895;28;20024;-78
2022/07/12 01:23:40;;;;;;;6.30;5.55;;;;;;;15.73;100.00;101317.72;5018568;28;20036;-78
2022/07/12 01:26:05;;;;;;;8.93;6.20;;;;;;;15.82;100.00;101321.94;5048537;28;20363;-78
2022/07/12 01:28:31;;;;;;;8.18;5.57;;;;;;;15.63;100.00;101293.63;5031646;28;20042;-77
2022/07/12 01:30:57;;;;;;;8.35;5.75;;;;;;;15.67;100.00;101297.63;5032582;28;20040;-78
2022/07/12 01:33:22;;;;;;;7.28;6.07;;;;;;;15.58;100.00;101293.34;5031326;28;20374;-79
2022/07/12 01:35:48;;;;;;;6.57;5.88;;;;;;;15.44;100.00;101278.88;5040104;28;20094;-80
2022/07/12 01:38:15;;;;;;;6.93;5.82;;;;;;;15.69;100.00;101330.84;5010641;28;20040;-79
2022/07/12 01:40:41;;;;;;;8.20;5.80;;;;;;;15.68;100.00;101326.41;5010621;28;20031;-81
2022/07/12 01:43:07;;;;;;;7.95;6.00;;;;;;;15.39;100.00;101279.44;5049268;28;20036;-79
2022/07/12 01:45:33;;;;;;;9.10;5.68;;;;;;;15.41;100.00;101268.41;5014959;28;20037;-77
2022/07/12 01:47:58;;;;;;;6.45;5.43;;;;;;;15.47;100.00;101277.63;5013653;28;20060;-77
2022/07/12 01:50:24;;;;;;;8.07;5.70;;;;;;;15.64;100.00;101308.88;5043522;28;20029;-78
2022/07/12 01:52:51;;;;;;;10.93;6.18;;;;;;;15.59;100.00;101295.88;5021577;28;20044;-76
2022/07/12 01:55:18;;;;;;;7.60;6.00;;;;;;;15.55;100.00;101293.75;5011236;28;20086;-79
2022/07/12 01:57:44;;;;;;;9.05;6.15;;;;;;;15.52;100.00;101289.56;5034970;28;20098;-77
2022/07/12 02:00:12;;;;;;;8.65;6.32;;;;;;;15.39;100.00;101278.59;5034675;28;20032;-78
2022/07/12 02:02:38;;;;;;;10.60;6.47;;;;;;;15.46;100.00;101308.50;5018645;28;20244;-78
2022/07/12 02:05:04;;;;;;;9.50;6.25;;;;;;;15.35;100.00;101310.69;5053952;28;20047;-79
2022/07/12 02:07:32;;;;;;;7.70;6.43;;;;;;;15.44;100.00;101326.81;5028534;28;20024;-78
2022/07/12 02:09:57;;;;;;;6.75;5.90;;;;;;;15.42;100.00;101339.72;5038860;28;20056;-78
2022/07/12 02:12:23;;;;;;;7.25;6.25;;;;;;;15.25;100.00;101315.59;5049589;28;20544;-77
2022/07/12 02:14:49;;;;;;;8.60;5.60;;;;;;;15.34;100.00;101314.41;5035889;28;20100;-77
2022/07/12 02:17:15;;;;;;;7.82;6.57;;;;;;;15.41;100.00;101324.50;5014425;28;20440;-77
2022/07/12 02:19:41;;;;;;;8.98;5.53;;;;;;;15.42;100.00;101328.88;5047279;28;20029;-77
2022/07/12 02:22:06;;;;;;;9.43;6.18;;;;;;;15.33;100.00;101320.03;5022006;28;20064;-78
2022/07/12 02:24:32;;;;;;;10.20;6.82;;;;;;;15.46;100.00;101339.13;5028548;28;20114;-77
2022/07/12 02:26:58;;;;;;;7.82;5.90;;;;;;;15.49;100.00;101343.31;5032598;28;20169;-77
2022/07/12 02:29:23;;;;;;;8.80;6.25;;;;;;;15.51;100.00;101341.28;5032201;28;20440;-77
2022/07/12 02:31:50;;;;;;;7.72;6.13;;;;;;;15.50;100.00;101334.16;5032769;28;20025;-77
2022/07/12 02:34:15;;;;;;;7.88;6.75;;;;;;;15.23;100.00;101295.97;5023227;28;20105;-77
2022/07/12 02:36:58;;;;;;;8.60;6.32;;;;;;;15.57;100.00;101337.78;5015594;28;20041;-78
2022/07/12 02:39:38;;;;;;;11.90;6.03;;;;;;;15.25;100.00;101291.19;5026671;28;20043;-78
2022/07/12 02:42:23;;;;;;;9.10;7.00;;;;;;;15.57;100.00;101349.44;5028013;28;20089;-77
2022/07/12 02:44:48;;;;;;;10.68;7.85;;;;;;;15.59;100.00;101351.97;5066650;28;20437;-78
2022/07/12 02:47:14;;;;;;;11.23;6.85;;;;;;;15.58;100.00;101342.16;5019877;28;20036;-78
2022/07/12 02:49:40;;;;;;;11.30;6.97;;;;;;;15.59;100.00;101338.44;5034444;28;20025;-78
2022/07/12 02:52:05;;;;;;;12.68;7.40;;;;;;;15.60;100.00;101340.09;5049762;28;20032;-79
2022/07/12 02:54:31;;;;;;;9.75;6.47;;;;;;;15.52;100.00;101332.94;5032427;28;20059;-79
2022/07/12 02:56:57;;;;;;;7.70;6.25;;;;;;;15.56;100.00;101338.81;5017758;28;20482;-77
2022/07/12 02:59:22;;;;;;;11.55;7.53;;;;;;;15.60;100.00;101346.34;5036506;28;20108;-77
2022/07/12 03:01:48;;;;;;;10.50;6.05;;;;;;;15.56;100.00;101333.41;5027850;28;20033;-80
2022/07/12 03:04:14;;;;;;;8.20;6.65;;;;;;;15.51;100.00;101333.13;5026185;28;20037;-80
2022/07/12 03:06:39;;;;;;;11.40;6.53;;;;;;;15.45;100.00;101317.63;5016815;28;20043;-78
2022/07/12 03:09:05;;;;;;;8.75;6.65;;;;;;;15.59;100.00;101336.56;5017552;28;20064;-78
2022/07/12 03:11:31;;;;;;;10.35;6.78;;;;;;;15.54;100.00;101319.19;5041739;28;20036;-79
2022/07/12 03:13:56;;;;;;;8.88;5.78;;;;;;;15.57;100.00;101318.81;5031935;28;20151;-78
2022/07/12 03:16:22;;;;;;;10.00;5.72;;;;;;;15.59;100.00;101322.16;5061651;28;20033;-78
2022/07/12 03:18:47;;;;;;;7.30;6.18;;;;;;;15.64;100.00;101326.97;5040126;28;20025;-81
2022/07/12 03:21:13;;;;;;;7.63;5.90;;;;;;;15.60;100.00;101323.81;5035181;28;20555;-78
2022/07/12 03:23:39;;;;;;;8.75;6.50;;;;;;;15.69;100.00;101327.25;5035995;28;20047;-81
2022/07/12 03:26:06;;;;;;;8.57;6.32;;;;;;;15.62;100.00;101310.94;5067079;28;20035;-80
2022/07/12 03:28:32;;;;;;;7.13;6.00;;;;;;;15.70;100.00;101323.53;5013332;28;20028;-77
2022/07/12 03:30:57;;;;;;;8.25;4.80;;;;;;;15.71;100.00;101328.75;5030334;28;20453;-77
2022/07/12 03:33:23;;;;;;;8.48;5.53;;;;;;;15.71;100.00;101315.19;5022259;28;20405;-77
2022/07/12 03:35:49;;;;;;;5.70;4.57;;;;;;;15.57;100.00;101299.81;5014835;28;20140;-77
2022/07/12 03:38:15;;;;;;;7.50;5.68;;;;;;;15.53;100.00;101296.69;5047813;28;20042;-78
2022/07/12 03:40:40;;;;;;;7.22;5.05;;;;;;;15.72;100.00;101316.06;5033446;28;20047;-78
2022/07/12 03:43:06;;;;;;;5.25;4.60;;;;;;;15.73;100.00;101321.25;5050256;28;20044;-78
2022/07/12 03:45:32;;;;;;;7.80;5.15;;;;;;;15.78;100.00;101320.69;5050420;28;20044;-80
2022/07/12 03:47:57;;;;;;;6.88;4.85;;;;;;;15.76;100.00;101320.88;5035391;28;20036;-78
2022/07/12 03:50:23;;;;;;;6.68;4.60;;;;;;;15.80;100.00;101333.00;5033070;28;20051;-78
2022/07/12 03:52:49;;;;;;;5.05;4.30;;;;;;;15.60;100.00;101302.97;5018412;28;20127;-79
2022/07/12 03:55:15;;;;;;;6.32;5.13;;;;;;;15.80;100.00;101314.03;5032823;28;20037;-78
2022/07/12 03:57:41;;;;;;;8.18;4.90;;;;;;;15.72;100.00;101305.22;5020255;28;20043;-78
2022/07/12 04:00:12;;;;;;;8.82;5.47;;;;;;;15.90;100.00;101329.09;5014527;28;20039;-78
2022/07/12 04:02:39;;;;;;;6.65;4.55;;;;;;;15.79;100.00;101308.78;5014559;28;20049;-81
2022/07/12 04:05:06;;;;;;;6.75;5.10;;;;;;;15.87;100.00;101322.19;5031747;28;20043;-78
2022/07/12 04:07:32;;;;;;;9.98;5.40;;;;;;;15.78;100.00;101307.13;5041463;28;20020;-80
2022/07/12 04:09:58;;;;;;;6.15;4.90;;;;;;;15.83;100.00;101310.09;5013989;28;20659;-78
2022/07/12 04:12:23;;;;;;;7.07;5.47;;;;;;;15.91;100.00;101325.38;5071191;28;20036;-79
2022/07/12 04:14:49;;;;;;;5.38;4.32;;;;;;;15.80;100.00;101316.75;5014631;28;20029;-79
2022/07/12 04:17:14;;;;;;;8.25;5.50;;;;;;;15.92;100.00;101319.72;5010652;28;20060;-81
2022/07/12 04:19:40;;;;;;;7.93;4.78;;;;;;;15.91;100.00;101319.94;5013881;28;20097;-79
2022/07/12 04:22:06;;;;;;;9.07;5.28;;;;;;;16.03;100.00;101329.19;5028950;28;20386;-78
2022/07/12 04:24:32;;;;;;;5.93;5.32;;;;;;;16.05;100.00;101333.38;5039821;28;20040;-78
2022/07/12 04:26:58;;;;;;;7.22;4.97;;;;;;;15.99;100.00;101327.94;5031390;28;20381;-77
2022/07/12 04:29:24;;;;;;;8.70;5.13;;;;;;;15.89;100.00;101324.72;5008304;28;20112;-79
2022/07/12 04:31:49;;;;;;;8.68;6.05;;;;;;;15.54;100.00;101283.97;5028251;28;20037;-81
2022/07/12 04:34:16;;;;;;;7.47;4.80;;;;;;;15.46;100.00;101290.34;5027522;28;20033;-81
2022/07/12 04:36:45;;;;;;;6.57;4.90;;;;;;;15.36;100.00;101304.22;5027497;28;20040;-78
2022/07/12 04:39:11;;;;;;;19.10;5.85;;;;;;;15.33;100.00;101323.59;5033064;28;20043;-77
2022/07/12 04:41:37;;;;;;;12.40;6.00;;;;;;;15.14;100.00;101314.22;5011845;28;20119;-77
2022/07/12 04:44:04;;;;;;;14.77;6.15;;;;;;;15.14;100.00;101338.59;5047173;28;20047;-77
2022/07/12 04:46:30;;;;;;;12.60;6.25;;;;;;;14.84;100.00;101299.91;5016473;28;20067;-82
2022/07/12 04:48:55;;;;;;;9.10;5.72;;;;;;;15.04;100.00;101348.06;5046352;28;20076;-76
2022/07/12 04:51:21;;;;;;;8.23;5.85;;;;;;;14.77;100.00;101312.56;5048246;28;20076;-78
2022/07/12 04:53:47;;;;;;;11.05;6.95;;;;;;;14.95;100.00;101336.50;5033998;28;20428;-77
2022/07/12 04:56:13;;;;;;;9.07;6.88;;;;;;;14.79;100.00;101301.53;5034195;28;20079;-77
2022/07/12 04:58:39;;;;;;;9.25;5.35;;;;;;;15.00;100.00;101342.16;5031424;28;20489;-77
2022/07/12 05:01:05;;;;;;;9.73;6.28;;;;;;;14.84;100.00;101331.56;5032281;28;20386;-76
2022/07/12 05:03:30;;;;;;;10.60;7.40;;;;;;;14.96;100.00;101359.84;5043445;28;20025;-77
2022/07/12 05:05:56;;;;;;;8.45;7.30;;;;;;;15.00;100.00;101365.72;5036594;28;20028;-76
2022/07/12 05:08:22;;;;;;;9.95;7.43;;;;;;;14.92;100.00;101345.88;5014341;28;20454;-76
2022/07/12 05:10:48;;;;;;;8.63;7.10;;;;;;;14.93;100.00;101320.44;5019776;28;20076;-79
2022/07/12 05:13:14;;;;;;;13.13;8.00;;;;;;;14.94;100.00;101326.69;5015151;28;21425;-76
2022/07/12 05:15:39;;;;;;;9.35;7.40;;;;;;;14.95;100.00;101336.50;5018312;28;20036;-76
2022/07/12 05:18:05;;;;;;;10.85;8.10;;;;;;;14.88;100.00;101332.88;5065550;28;20036;-76
2022/07/12 05:20:31;;;;;;;13.48;7.40;;;;;;;14.92;100.00;101336.88;5030232;28;20442;-78
2022/07/12 05:22:57;;;;;;;9.57;8.05;;;;;;;14.98;100.00;101337.97;5027644;28;20131;-76
2022/07/12 05:25:22;;;;;;;10.95;6.90;;;;;;;15.01;100.00;101334.91;5035781;28;20089;-76
2022/07/12 05:27:48;;;;;;;9.90;7.85;;;;;;;15.05;100.00;101347.03;5031122;28;20056;-78
2022/07/12 05:30:13;;;;;;;12.25;8.63;;;;;;;15.05;100.00;101355.16;5047574;28;20076;-76
2022/07/12 05:32:39;;;;;;;10.13;8.23;;;;;;;15.10;100.00;101360.84;5051511;28;20417;-78
2022/07/12 05:35:05;;;;;;;12.43;8.27;;;;;;;15.12;100.00;101362.31;5024383;28;20147;-76
2022/07/12 05:37:31;;;;;;;11.88;8.65;;;;;;;15.15;100.00;101363.81;5013275;28;20090;-76
2022/07/12 05:39:57;;;;;;;10.13;8.45;;;;;;;15.01;100.00;101334.91;5039215;28;20028;-77
2022/07/12 05:42:23;;;;;;;9.82;7.63;;;;;;;15.22;100.00;101369.31;5012759;28;20360;-79
2022/07/12 05:44:48;;;;;;;8.93;6.85;;;;;;;15.26;100.00;101367.88;5027573;28;20539;-79
2022/07/12 05:47:14;;;;;;;11.70;7.88;;;;;;;15.29;100.00;101368.34;5026060;28;20047;-79
2022/07/12 05:49:40;;;;;;;9.35;7.78;;;;;;;15.29;100.00;101359.38;5020560;28;20044;-78
2022/07/12 05:54:50;;;;;;;6.47;4.70;;;;;;;15.41;100.00;101374.09;5034420;28;20036;-81
2022/07/12 05:57:16;;;;;;;13.65;8.10;;;;;;;15.42;100.00;101388.50;5038770;28;20037;-81
2022/07/12 05:59:42;;;;;;;12.98;9.38;;;;;;;15.38;100.00;101391.59;5040172;28;20033;-78
2022/07/12 06:02:08;;;;;;;14.05;9.35;;;;;;;15.41;100.00;101394.94;5043600;28;20037;-78
2022/07/12 06:04:34;;;;;;;13.20;7.93;;;;;;;15.38;100.00;101378.03;5052012;28;20040;-77
2022/07/12 06:07:00;;;;;;;10.32;8.27;;;;;;;15.25;100.00;101329.13;5045278;28;20059;-77
2022/07/12 06:09:25;;;;;;;10.65;8.63;;;;;;;15.34;100.00;101333.38;5031979;28;20509;-78
2022/07/12 06:11:51;;;;;;;13.80;9.38;;;;;;;15.44;100.00;101362.03;5017733;28;20048;-78
2022/07/12 06:14:17;;;;;;;10.48;8.77;;;;;;;15.54;100.00;101354.44;5036213;28;20843;-80
2022/07/12 06:16:43;;;;;;;10.50;7.00;;;;;;;15.52;100.00;101342.94;5065912;28;20060;-78
2022/07/12 06:19:09;;;;;;;12.90;8.65;;;;;;;15.56;100.00;101355.09;5029287;28;20397;-77
2022/07/12 06:21:34;;;;;;;12.52;8.60;;;;;;;15.49;100.00;101362.31;5038466;28;20358;-79
2022/07/12 06:24:00;;;;;;;11.38;8.52;;;;;;;15.44;100.00;101362.03;5030223;28;20032;-79
2022/07/12 06:26:27;;;;;;;11.77;8.43;;;;;;;15.45;100.00;101363.72;5014191;28;20048;-80
2022/07/12 06:28:52;;;;;;;10.20;7.45;;;;;;;15.49;100.00;101378.56;5036220;28;20036;-78
2022/07/12 06:31:18;;;;;;;12.23;8.00;;;;;;;15.50;100.00;101370.22;5061017;28;20043;-77
2022/07/12 06:33:47;;;;;;;11.65;6.90;;;;;;;15.57;100.00;101381.97;5030033;28;20047;-80
2022/07/12 06:36:13;;;;;;;11.85;8.30;;;;;;;15.59;100.00;101385.34;5052046;28;20024;-77
2022/07/12 06:38:39;;;;;;;12.13;9.30;;;;;;;15.54;100.00;101362.56;5014920;28;20064;-78
2022/07/12 06:41:04;;;;;;;10.45;8.18;;;;;;;15.68;100.00;101377.06;5039643;28;20508;-77
2022/07/12 06:43:30;;;;;;;11.95;8.25;;;;;;;15.78;100.00;101399.31;5038015;28;20393;-78
2022/07/12 06:45:56;;;;;;;10.68;8.68;;;;;;;15.76;100.00;101404.09;5016648;28;20033;-77
2022/07/12 06:48:21;;;;;;;13.43;9.55;;;;;;;15.69;100.00;101404.03;5015673;28;20251;-77
2022/07/12 06:50:47;;;;;;;10.30;8.75;;;;;;;15.77;100.00;101414.75;5027638;28;20382;-78
2022/07/12 06:53:13;;;;;;;11.77;9.05;;;;;;;15.51;100.00;101379.22;5052733;28;20039;-77
2022/07/12 06:55:39;;;;;;;13.75;9.10;;;;;;;15.72;100.00;101406.34;5034706;28;20120;-77
2022/07/12 06:58:05;;;;;;;14.65;9.65;;;;;;;15.59;100.00;101389.94;5022288;28;20040;-78
2022/07/12 07:00:32;;;;;;;11.25;9.48;;;;;;;15.69;100.00;101406.75;5024934;28;20059;-77
2022/07/12 07:03:10;;;;;;;12.55;10.38;;;;;;;15.58;100.00;101393.66;5011221;28;20032;-77
2022/07/12 07:05:37;;;;;;;10.15;8.70;;;;;;;15.69;100.00;101414.00;5025768;28;20059;-77
2022/07/12 07:08:05;;;;;;;13.05;9.68;;;;;;;15.74;100.00;101422.41;5028008;28;20036;-77
2022/07/12 07:10:33;;;;;;;13.80;9.70;;;;;;;15.65;100.00;101393.72;5031985;28;20628;-79
2022/07/12 07:12:59;;;;;;;12.27;10.45;;;;;;;15.84;100.00;101420.22;5016768;28;20048;-80
2022/07/12 07:15:26;;;;;;;12.75;9.93;;;;;;;15.87;100.00;101408.13;5012090;28;20070;-79
2022/07/12 07:17:51;;;;;;;14.68;11.50;;;;;;;15.98;100.00;101413.03;5029094;28;20036;-79
2022/07/12 07:20:17;;;;;;;14.50;9.48;;;;;;;15.99;100.00;101403.88;5043634;28;20036;-77
2022/07/12 07:22:43;;;;;;;14.80;11.40;;;;;;;16.03;100.00;101395.13;5027613;28;20487;-77
2022/07/12 07:25:08;;;;;;;11.43;7.72;;;;;;;16.19;100.00;101404.84;5025175;28;20666;-78
2022/07/12 07:27:34;;;;;;;12.57;9.82;;;;;;;16.16;100.00;101390.84;5043637;28;20064;-79
2022/07/12 07:32:45;;;;;;;14.90;10.77;;;;;;;16.49;100.00;101404.66;5044255;28;20206;-79
2022/07/12 07:35:10;;;;;;;13.15;9.10;;;;;;;16.57;100.00;101401.78;5029337;28;20464;-78
2022/07/12 07:37:36;;;;;;;12.75;10.25;;;;;;;16.64;100.00;101407.25;5035370;28;20033;-82
2022/07/12 07:40:02;;;;;;;12.27;8.93;;;;;;;16.64;100.00;101407.25;5013791;28;20473;-77
2022/07/12 07:42:28;;;;;;;11.90;9.90;;;;;;;16.56;100.00;101397.38;5015154;28;21108;-79
2022/07/12 07:44:54;;;;;;;15.50;10.93;;;;;;;16.74;100.00;101412.31;5013871;28;20458;-77
2022/07/12 07:47:19;;;;;;;10.90;8.15;;;;;;;16.70;100.00;101403.75;5037020;28;20037;-78
2022/07/12 07:49:48;;;;;;;14.20;10.55;;;;;;;16.74;100.00;101410.44;5024076;28;20079;-83
2022/07/12 07:52:14;;;;;;;12.23;9.13;;;;;;;16.66;100.00;101381.56;5026555;28;20136;-81
2022/07/12 07:54:39;;;;;;;16.38;11.02;;;;;;;17.02;100.00;101417.72;5036253;28;20111;-77
2022/07/12 07:57:09;;;;;;;13.25;10.35;;;;;;;17.16;100.00;101416.72;5030457;28;20394;-80
2022/07/12 07:59:36;;;;;;;14.48;10.65;;;;;;;17.33;100.00;101417.19;5028912;28;20047;-79
2022/07/12 08:02:01;;;;;;;15.75;11.25;;;;;;;17.52;100.00;101419.16;5018207;28;20500;-79
2022/07/12 08:04:27;;;;;;;11.85;10.43;;;;;;;17.60;100.00;101407.25;5030660;28;20048;-80
2022/07/12 08:06:53;;;;;;;13.68;9.48;;;;;;;17.70;100.00;101413.13;5016481;28;20050;-78
2022/07/12 08:09:18;;;;;;;11.70;7.22;;;;;;;17.80;100.00;101421.72;5028930;28;20434;-78
2022/07/12 08:11:44;;;;;;;10.80;9.55;;;;;;;17.78;100.00;101393.03;5030693;28;20505;-78
2022/07/12 08:14:10;;;;;;;10.63;8.95;;;;;;;17.96;100.00;101406.03;5037827;28;20058;-78
2022/07/12 08:16:37;;;;;;;12.05;9.30;;;;;;;18.20;100.00;101418.19;5035214;28;20063;-78
2022/07/12 08:19:03;;;;;;;10.45;7.35;;;;;;;18.21;100.00;101398.09;5015084;28;20497;-79
2022/07/12 08:21:29;;;;;;;9.05;8.05;;;;;;;18.36;100.00;101417.75;5037398;28;20131;-78
2022/07/12 08:23:55;;;;;;;10.98;8.13;;;;;;;18.38;100.00;101415.66;5031139;28;20123;-79
2022/07/12 08:26:21;;;;;;;10.75;7.28;;;;;;;18.36;100.00;101428.63;5031222;28;20087;-78
2022/07/12 08:28:47;;;;;;;9.55;7.10;;;;;;;18.30;100.00;101424.03;5054487;28;20412;-80
2022/07/12 08:31:13;;;;;;;8.25;6.97;;;;;;;18.26;100.00;101422.81;5030371;28;20390;-79
2022/07/12 08:33:40;;;;;;;9.70;6.50;;;;;;;18.33;100.00;101428.22;5009002;28;20060;-79
2022/07/12 08:36:06;;;;;;;9.45;5.85;;;;;;;18.37;100.00;101430.31;5029589;28;20075;-78
2022/07/12 08:38:33;;;;;;;8.50;6.40;;;;;;;18.53;100.00;101420.03;5017767;28;20036;-78
2022/07/12 08:40:59;;;;;;;8.55;6.38;;;;;;;18.89;100.00;101428.59;5024435;28;20367;-81
2022/07/12 08:43:24;;;;;;;7.95;6.22;;;;;;;19.19;100.00;101424.47;5012272;28;20101;-78
2022/07/12 08:45:51;;;;;;;6.57;5.55;;;;;;;19.41;100.00;101419.53;5016047;28;20700;-80
2022/07/12 08:48:17;;;;;;;5.72;5.13;;;;;;;19.23;100.00;101399.28;5039208;28;20544;-80
2022/07/12 08:50:43;;;;;;;8.13;6.22;;;;;;;19.26;100.00;101401.56;5042810;28;20052;-82
2022/07/12 08:53:12;;;;;;;8.15;6.63;;;;;;;19.38;100.00;101425.44;5048705;28;20035;-77
2022/07/12 08:55:38;;;;;;;8.63;6.00;;;;;;;19.34;100.00;101430.47;5034521;28;20025;-81
2022/07/12 08:58:06;;;;;;;6.55;5.82;;;;;;;19.30;100.00;101440.16;5051452;28;20055;-79
2022/07/12 09:00:32;;;;;;;8.35;5.30;;;;;;;19.25;100.00;101431.78;5036029;28;20127;-80
2022/07/12 09:03:03;;;;;;;7.38;6.22;;;;;;;19.18;100.00;101423.63;5035522;28;20025;-82
2022/07/12 09:05:30;;;;;;;7.80;5.28;;;;;;;19.44;100.00;101438.19;5037930;28;20070;-80
2022/07/12 09:08:06;;;;;;;7.28;5.28;;;;;;;19.53;100.00;101426.81;5019903;28;20459;-82
2022/07/12 09:11:04;;;;;;;7.30;4.78;;;;;;;19.66;100.00;101435.94;5039358;28;20408;-80
2022/07/12 09:13:50;;;;;;;6.72;5.90;;;;;;;19.60;100.00;101440.41;5035605;28;20485;-80
2022/07/12 09:16:17;;;;;;;7.45;4.72;;;;;;;19.65;100.00;101439.75;5027757;28;20054;-81
2022/07/12 09:18:44;;;;;;;8.15;5.63;;;;;;;19.65;100.00;101443.31;5044322;28;20032;-80
2022/07/12 09:21:09;;;;;;;6.00;4.90;;;;;;;19.79;100.00;101443.25;5043952;28;20378;-79
2022/07/12 09:23:35;;;;;;;7.28;5.22;;;;;;;19.65;100.00;101424.22;5027390;28;20037;-79
2022/07/12 09:26:07;;;;;;;6.25;4.55;;;;;;;19.61;100.00;101453.00;5047321;28;20040;-80
2022/07/12 09:28:33;;;;;;;5.10;3.75;;;;;;;19.31;100.00;101452.72;5019532;28;20102;-80
2022/07/12 09:30:59;;;;;;;9.50;5.20;;;;;;;19.09;100.00;101463.94;5015273;28;20075;-81
2022/07/12 09:36:10;;;;;;;23.48;5.10;;;;;;;18.79;100.00;101477.22;5054444;28;20043;-80
2022/07/12 09:38:37;;;;;;;23.98;5.40;;;;;;;18.73;100.00;101467.13;5051805;28;20029;-80
2022/07/12 09:41:07;;;;;;;20.60;5.15;;;;;;;18.72;100.00;101475.53;5032929;28;20033;-81
2022/07/12 09:43:33;;;;;;;18.33;6.85;;;;;;;18.73;100.00;101464.41;5061320;28;20109;-80
2022/07/12 09:45:59;;;;;;;11.77;5.00;;;;;;;18.78;100.00;101470.09;5031935;28;20279;-81
2022/07/12 09:48:27;;;;;;;13.55;5.47;;;;;;;18.72;100.00;101451.84;5036193;28;20033;-83
2022/07/12 09:50:53;;;;;;;23.50;6.72;;;;;;;18.87;100.00;101466.09;5013809;28;20074;-80
2022/07/12 09:53:28;;;;;;;8.45;5.40;;;;;;;18.96;100.00;101471.31;5048049;28;20036;-81
2022/07/12 09:55:54;;;;;;;7.20;4.80;;;;;;;19.05;100.00;101489.09;5016926;28;20132;-84
2022/07/12 09:58:30;;;;;;;8.50;4.70;;;;;;;19.04;100.00;101484.69;5028411;28;20071;-81
2022/07/12 10:00:59;;;;;;;5.85;3.63;;;;;;;18.90;100.00;101483.91;5052417;28;20037;-81
2022/07/12 10:03:29;;;;;;;13.07;5.15;;;;;;;18.74;100.00;101485.16;5021012;28;20043;-79
2022/07/12 10:05:55;;;;;;;11.15;5.20;;;;;;;18.63;100.00;101469.47;5027769;28;20024;-78
2022/07/12 10:08:21;;;;;;;24.77;5.45;;;;;;;18.61;100.00;101485.19;5050851;28;20028;-78
2022/07/12 10:10:48;;;;;;;6.03;4.20;;;;;;;18.34;100.00;101452.53;5050054;28;20043;-78
2022/07/12 10:13:14;;;;;;;8.35;5.82;;;;;;;18.43;100.00;101474.94;5032726;28;20025;-79
2022/07/12 10:15:43;;;;;;;8.27;5.38;;;;;;;18.32;100.00;101473.69;5012850;28;20083;-79
2022/07/12 10:18:15;;;;;;;5.85;4.50;;;;;;;18.28;100.00;101477.84;5046090;28;20064;-79
2022/07/12 10:20:45;;;;;;;4.70;3.83;;;;;;;18.27;100.00;101480.81;5033441;28;20051;-79
2022/07/12 10:23:26;;;;;;;6.15;4.63;;;;;;;18.26;100.00;101488.13;5057489;28;20024;-81
2022/07/12 10:25:51;;;;;;;7.35;5.35;;;;;;;18.31;100.00;101493.78;5073133;28;20059;-78
2022/07/12 10:28:17;;;;;;;5.20;4.47;;;;;;;18.30;100.00;101494.81;5057534;28;20052;-80
2022/07/12 10:30:45;;;;;;;5.30;4.75;;;;;;;18.27;100.00;101487.06;5022187;28;20442;-79
2022/07/12 10:33:19;;;;;;;6.45;5.18;;;;;;;18.46;100.00;101507.19;5042443;28;20025;-78
2022/07/12 10:36:05;;;;;;;8.98;5.10;;;;;;;18.54;100.00;101500.69;5027630;28;20417;-81
2022/07/12 10:38:32;;;;;;;8.30;4.72;;;;;;;18.73;100.00;101501.72;5064557;28;20511;-84
2022/07/12 10:41:03;;;;;;;8.50;5.00;;;;;;;18.85;100.00;101495.44;5031158;28;20028;-78
2022/07/12 10:46:18;;;;;;;5.65;4.55;;;;;;;19.44;99.92;101501.75;5045300;28;20382;-80
2022/07/12 10:48:44;;;;;;;6.85;4.40;;;;;;;19.46;95.91;101498.81;5033764;28;20029;-80
2022/07/12 10:51:20;;;;;;;5.63;3.90;;;;;;;19.44;96.68;101507.19;5035455;28;22011;-80
2022/07/12 10:53:48;;;;;;;5.55;4.20;;;;;;;19.47;96.64;101505.94;5052220;28;20055;-79
2022/07/12 10:56:17;;;;;;;7.53;4.65;;;;;;;19.60;97.51;101505.88;5049624;28;20024;-83
2022/07/12 10:58:46;;;;;;;5.57;4.78;;;;;;;19.64;96.56;101507.13;5035128;28;20033;-79
2022/07/12 11:01:23;;;;;;;7.50;4.25;;;;;;;19.99;95.74;101517.66;5046280;28;20102;-83
2022/07/12 11:03:51;;;;;;;3.42;3.03;;;;;;;19.88;92.31;101512.91;5026666;28;20036;-80
2022/07/12 11:06:19;;;;;;;8.18;3.10;;;;;;;19.51;94.53;101507.19;5051432;28;20031;-80
2022/07/12 11:09:01;;;;;;;6.22;3.03;;;;;;;19.29;95.10;101510.22;5056739;28;20044;-82
2022/07/12 11:11:28;;;;;;;3.58;2.78;;;;;;;19.19;96.76;101515.28;5041400;28;20389;-82
2022/07/12 11:13:55;;;;;;;4.63;3.17;;;;;;;19.13;98.44;101499.75;5032920;28;20059;-83
2022/07/12 11:16:21;;;;;;;5.53;3.25;;;;;;;19.19;99.68;101509.00;5029540;28;20051;-84
2022/07/12 11:18:46;;;;;;;4.35;3.00;;;;;;;19.26;98.78;101510.63;5034803;28;20029;-80
2022/07/12 11:21:12;;;;;;;4.10;2.80;;;;;;;19.64;97.10;101511.75;5022822;28;20043;-80
2022/07/12 11:23:40;;;;;;;5.53;3.20;;;;;;;19.91;96.48;101516.03;5017776;28;20893;-81